Huvudsida
METAR-TAF:

METAR-TAF

Flygplatser :

Trevisos flygplats

Treviso, Italien

latitud: 45-39N, longitud: 012-11E, höjd: 18 m

Aktuellt väderrapport

Denna rapport gjordes för 21 minuter sedan, klockan 21:50 UTC
Vind 5 kt från nord, varierande mellan nordväst och nord/nordost
Temperatur 10°C
Fuktighet 93%
Tryck 1009 hPa
Sikt 10 km eller mer
Brutna moln på en höjd av 2000 ft
lätt regn

METAR: LIPH 112150Z 35005KT 320V020 9999 -RA BKN020 10/09 Q1009

Tid: 23:11 (22:11 UTC)

Väderprognos

Denna rapport gjordes för 5 timmar och 11 minuter sedan, klockan 17:00 UTC
Prognos gäller från 11 kl. 18 UTC till 12 kl. 18 UTC
Vind 9 kt från nordost
Sikt: 6000 m
Brutna moln på en höjd av 1000 ft
Brutna moln på en höjd av 3000 ft
Temporärt
från 11 kl. 18 UTC till 12 kl. 12 UTC
Sikt: 4000 m
regn
Temporärt
från 12 kl. 12 UTC till 12 kl. 18 UTC
Sikt: 3000 m
åska, regn

TAF: LIPH 111700Z 1118/1218 04009KT 6000 BKN010 BKN030 TEMPO 1118/1212 4000 RA TEMPO 1212/1218 3000 TSRA

Aktuella väderrapporter och prognoser från 4000 flygplatser (METAR- och TAF-rapporter).

De tillgängliga stationerna syns som gula och röda prickar på kartan.

För musen över prickarna för att se namnen på stationerna.

Klicka sedan för att få väderrapporter och prognoser.

För att ändra kartan: Klicka på de gröna knapparna med ett svart kors på för att zooma in; den gröna knappen med ett streck på för att zooma ut; eller på de gröna pilarna för angränsande kartor.


METAR-TAF: